createdAt,value
2018-08-06T00:00:48.435Z,43.67
2018-08-06T00:03:19.743Z,45.03
2018-08-06T00:05:49.873Z,44.57
2018-08-06T00:08:20.816Z,43.63
2018-08-06T00:10:51.097Z,43.83
2018-08-06T00:13:21.876Z,44.90
2018-08-06T00:15:52.279Z,44.20
2018-08-06T00:18:23.786Z,45.30
2018-08-06T00:20:55.288Z,44.00
2018-08-06T00:23:26.652Z,43.87
2018-08-06T00:25:56.911Z,43.80
2018-08-06T00:28:27.936Z,43.50
2018-08-06T00:30:59.342Z,44.53
2018-08-06T00:33:29.429Z,44.47
2018-08-06T00:35:59.979Z,44.70
2018-08-06T00:38:30.229Z,43.93
2018-08-06T00:41:00.528Z,44.03
2018-08-06T00:43:30.742Z,44.80
2018-08-06T00:46:01.093Z,44.70
2018-08-06T00:48:31.947Z,43.73
2018-08-06T00:51:02.362Z,43.77
2018-08-06T00:53:32.572Z,44.07
2018-08-06T00:56:03.742Z,44.77
2018-08-06T00:58:33.859Z,43.87
2018-08-06T01:01:04.364Z,44.60
2018-08-06T01:03:34.611Z,44.17
2018-08-06T01:06:05.786Z,43.63
2018-08-06T01:08:36.423Z,43.63
2018-08-06T01:11:07.294Z,44.20
2018-08-06T01:13:37.682Z,44.67
2018-08-06T01:16:08.408Z,43.33
2018-08-06T01:18:39.064Z,44.00
2018-08-06T01:21:09.308Z,43.63
2018-08-06T01:23:39.452Z,43.93
2018-08-06T01:26:10.059Z,44.67
2018-08-06T01:28:40.321Z,43.63
2018-08-06T01:31:11.901Z,43.37
2018-08-06T01:33:42.225Z,43.20
2018-08-06T01:36:12.999Z,43.30
2018-08-06T01:38:43.507Z,43.87
2018-08-06T01:41:13.720Z,45.10
2018-08-06T01:43:44.306Z,44.13
2018-08-06T01:46:15.013Z,43.73
2018-08-06T01:48:45.542Z,44.00
2018-08-06T01:51:15.731Z,44.87
2018-08-06T01:53:45.806Z,44.50
2018-08-06T01:56:16.111Z,44.07
2018-08-06T01:58:46.173Z,43.87
2018-08-06T02:01:16.351Z,44.20
2018-08-06T02:03:46.413Z,43.70
2018-08-06T02:06:16.962Z,43.90
2018-08-06T02:08:47.963Z,44.53
2018-08-06T02:11:18.121Z,43.93
2018-08-06T02:13:48.399Z,43.37
2018-08-06T02:16:18.705Z,43.87
2018-08-06T02:18:49.246Z,43.73
2018-08-06T02:21:19.454Z,44.37
2018-08-06T02:23:50.649Z,44.63
2018-08-06T02:26:21.963Z,43.40
2018-08-06T02:28:52.017Z,43.40
2018-08-06T02:31:22.492Z,43.97
2018-08-06T02:33:53.042Z,43.53
2018-08-06T02:36:23.266Z,45.07
2018-08-06T02:38:53.552Z,43.70
2018-08-06T02:41:23.769Z,44.10
2018-08-06T02:43:54.170Z,43.47
2018-08-06T02:46:24.379Z,43.23
2018-08-06T02:48:55.046Z,44.07
2018-08-06T02:51:25.226Z,43.87
2018-08-06T02:53:56.485Z,43.67
2018-08-06T02:56:26.246Z,43.20
2018-08-06T02:58:57.114Z,43.47
2018-08-06T03:01:26.988Z,45.80
2018-08-06T03:03:58.361Z,44.43
2018-08-06T03:06:28.377Z,43.87
2018-08-06T03:08:58.600Z,43.70
2018-08-06T03:11:28.757Z,43.57
2018-08-06T03:13:59.858Z,43.40
2018-08-06T03:16:30.129Z,44.00
2018-08-06T03:19:00.631Z,44.60
2018-08-06T03:21:30.678Z,43.53
2018-08-06T03:24:01.579Z,43.43
2018-08-06T03:26:31.842Z,43.77
2018-08-06T03:29:01.835Z,43.53
2018-08-06T03:31:31.978Z,43.77
2018-08-06T03:34:02.065Z,43.73
2018-08-06T03:36:32.176Z,43.33
2018-08-06T03:39:02.594Z,43.13
2018-08-06T03:41:33.331Z,43.80
2018-08-06T03:44:03.697Z,43.33
2018-08-06T03:46:33.878Z,44.30
2018-08-06T03:49:04.007Z,43.70
2018-08-06T03:51:34.378Z,43.17
2018-08-06T03:54:04.454Z,43.60
2018-08-06T03:56:34.977Z,43.47
2018-08-06T03:59:05.716Z,44.23
2018-08-06T04:01:36.153Z,44.27
2018-08-06T04:04:06.231Z,43.33
2018-08-06T04:06:36.655Z,43.27
2018-08-06T04:09:08.794Z,43.80
2018-08-06T04:11:38.873Z,43.40
2018-08-06T04:14:09.310Z,44.43
2018-08-06T04:16:43.192Z,43.03
2018-08-06T04:19:14.384Z,44.17
2018-08-06T04:21:44.544Z,44.13
2018-08-06T04:24:14.838Z,43.53
2018-08-06T04:26:45.250Z,43.73
2018-08-06T04:29:15.577Z,44.10
2018-08-06T04:31:45.782Z,44.10
2018-08-06T04:34:16.318Z,44.03
2018-08-06T04:36:46.529Z,43.37
2018-08-06T04:39:17.079Z,44.33
2018-08-06T04:41:47.462Z,44.10
2018-08-06T04:44:17.412Z,43.27
2018-08-06T04:46:47.767Z,43.63
2018-08-06T04:49:17.829Z,44.70
2018-08-06T04:51:48.164Z,43.40
2018-08-06T04:54:18.538Z,45.60
2018-08-06T04:56:48.764Z,45.33
2018-08-06T04:59:19.607Z,45.30
2018-08-06T05:01:50.325Z,45.03
2018-08-06T05:04:20.673Z,44.97
2018-08-06T05:06:50.909Z,44.47
2018-08-06T05:09:24.780Z,44.37
2018-08-06T05:11:54.864Z,44.97
2018-08-06T05:14:25.004Z,44.60
2018-08-06T05:16:55.193Z,44.60
2018-08-06T05:19:25.246Z,45.27
2018-08-06T05:21:55.451Z,45.00
2018-08-06T05:24:25.963Z,44.37
2018-08-06T05:26:56.369Z,44.17
2018-08-06T05:29:26.446Z,43.90
2018-08-06T05:31:56.737Z,43.90
2018-08-06T05:34:26.779Z,43.60
2018-08-06T05:36:56.980Z,45.33
2018-08-06T05:39:27.622Z,44.63
2018-08-06T05:41:57.857Z,44.30
2018-08-06T05:44:28.711Z,44.40
2018-08-06T05:47:00.026Z,44.17
2018-08-06T05:49:30.109Z,45.33
2018-08-06T05:52:01.620Z,44.70
2018-08-06T05:54:32.272Z,42.90
2018-08-06T05:57:02.717Z,43.83
2018-08-06T05:59:32.736Z,43.37
2018-08-06T06:02:03.190Z,43.40
2018-08-06T06:04:33.306Z,45.37
2018-08-06T06:07:03.113Z,45.27
2018-08-06T06:09:33.420Z,45.63
2018-08-06T06:12:03.648Z,46.30
2018-08-06T06:14:33.825Z,46.00
2018-08-06T06:17:04.017Z,46.30
2018-08-06T06:19:35.720Z,46.63
2018-08-06T06:22:06.116Z,46.43
2018-08-06T06:24:36.317Z,45.80
2018-08-06T06:27:06.477Z,46.50
2018-08-06T06:29:36.609Z,46.73
2018-08-06T06:32:07.404Z,47.20
2018-08-06T06:34:37.790Z,46.60
2018-08-06T06:37:08.052Z,45.97
2018-08-06T06:39:38.663Z,46.27
2018-08-06T06:42:09.001Z,45.47
2018-08-06T06:44:39.200Z,46.13
2018-08-06T06:47:10.797Z,48.00
2018-08-06T06:49:40.846Z,47.03
2018-08-06T06:52:11.340Z,45.57
2018-08-06T06:54:41.721Z,46.23
2018-08-06T06:57:14.605Z,47.47
2018-08-06T06:59:45.066Z,46.80
2018-08-06T07:02:15.283Z,47.97
2018-08-06T07:04:45.427Z,46.90
2018-08-06T07:07:15.523Z,47.07
2018-08-06T07:09:45.845Z,47.10
2018-08-06T07:12:16.219Z,48.20
2018-08-06T07:14:46.762Z,49.17
2018-08-06T07:17:17.185Z,47.17
2018-08-06T07:19:47.448Z,47.13
2018-08-06T07:22:17.628Z,46.67
2018-08-06T07:24:48.460Z,46.67
2018-08-06T07:27:18.738Z,47.93
2018-08-06T07:29:49.107Z,47.53
2018-08-06T07:32:20.556Z,47.83
2018-08-06T07:34:50.932Z,47.60
2018-08-06T07:37:21.139Z,48.07
2018-08-06T07:39:51.229Z,47.10
2018-08-06T07:42:21.661Z,48.73
2018-08-06T07:44:52.929Z,46.03
2018-08-06T07:47:23.311Z,47.73
2018-08-06T07:49:53.889Z,45.87
2018-08-06T07:52:24.357Z,46.50
2018-08-06T07:54:55.458Z,48.40
2018-08-06T07:57:25.679Z,47.90
2018-08-06T07:59:55.917Z,46.63
2018-08-06T08:02:25.882Z,47.40
2018-08-06T08:04:56.366Z,48.33
2018-08-06T08:07:27.548Z,46.67
2018-08-06T08:09:57.961Z,46.83
2018-08-06T08:12:28.077Z,45.20
2018-08-06T08:14:58.225Z,46.30
2018-08-06T08:17:28.685Z,47.13
2018-08-06T08:19:59.027Z,47.63
2018-08-06T08:22:29.253Z,48.10
2018-08-06T08:24:59.795Z,46.83
2018-08-06T08:27:30.621Z,45.50
2018-08-06T08:30:01.091Z,46.17
2018-08-06T08:32:31.613Z,47.33
2018-08-06T08:35:02.236Z,47.30
2018-08-06T08:37:33.943Z,48.50
2018-08-06T08:40:05.885Z,46.97
2018-08-06T08:42:36.901Z,46.00
2018-08-06T08:45:11.114Z,45.93
2018-08-06T08:47:42.566Z,47.10
2018-08-06T08:50:15.786Z,48.27
2018-08-06T08:52:46.259Z,46.47
2018-08-06T08:55:19.607Z,48.67
2018-08-06T08:57:49.929Z,48.67
2018-08-06T09:00:22.532Z,49.33
2018-08-06T09:02:53.457Z,48.00
2018-08-06T09:05:23.621Z,48.37
2018-08-06T09:07:54.538Z,46.33
2018-08-06T09:10:25.716Z,47.00
2018-08-06T09:12:56.168Z,48.07
2018-08-06T09:15:33.644Z,48.20
2018-08-06T09:18:03.728Z,47.70
2018-08-06T09:20:34.045Z,47.57
2018-08-06T09:23:04.696Z,46.30
2018-08-06T09:25:35.482Z,47.93
2018-08-06T09:28:05.585Z,47.83
2018-08-06T09:30:35.743Z,48.90
2018-08-06T09:33:06.097Z,46.80
2018-08-06T09:35:36.495Z,48.60
2018-08-06T09:38:07.663Z,48.30
2018-08-06T09:40:38.041Z,48.87
2018-08-06T09:43:08.547Z,49.77
2018-08-06T09:45:40.184Z,49.23
2018-08-06T09:48:10.361Z,48.87
2018-08-06T09:50:40.935Z,49.37
2018-08-06T09:53:11.393Z,46.00
2018-08-06T09:55:41.930Z,45.77
2018-08-06T09:58:22.258Z,46.13
2018-08-06T10:00:57.650Z,47.60
2018-08-06T10:03:27.964Z,48.03
2018-08-06T10:05:58.269Z,49.47
2018-08-06T10:08:28.670Z,48.00
2018-08-06T10:10:59.514Z,48.60
2018-08-06T10:13:30.359Z,48.53
2018-08-06T10:16:01.255Z,48.67
2018-08-06T10:18:31.607Z,47.80
2018-08-06T10:21:01.973Z,48.23
2018-08-06T10:23:32.565Z,48.67
2018-08-06T10:26:02.860Z,49.73
2018-08-06T10:28:33.191Z,47.37
2018-08-06T10:31:03.745Z,44.93
2018-08-06T10:33:34.018Z,46.63
2018-08-06T10:36:05.128Z,47.50
2018-08-06T10:38:35.279Z,46.90
2018-08-06T10:41:05.725Z,46.53
2018-08-06T10:43:36.327Z,47.40
2018-08-06T10:46:06.650Z,48.00
2018-08-06T10:48:37.045Z,48.67
2018-08-06T10:51:08.384Z,47.57
2018-08-06T10:53:40.498Z,48.10
2018-08-06T10:56:11.739Z,47.27
2018-08-06T10:58:42.679Z,48.57
2018-08-06T11:01:13.386Z,53.37
2018-08-06T11:03:44.537Z,47.43
2018-08-06T11:06:15.373Z,47.00
2018-08-06T11:08:46.620Z,48.43
2018-08-06T11:11:17.703Z,48.10
2018-08-06T11:13:48.882Z,47.97
2018-08-06T11:16:19.726Z,48.70
2018-08-06T11:18:57.497Z,49.30
2018-08-06T11:21:31.368Z,48.33
2018-08-06T11:24:02.107Z,47.77
2018-08-06T11:26:32.204Z,48.33
2018-08-06T11:29:03.913Z,49.27
2018-08-06T11:31:34.998Z,45.83
2018-08-06T11:34:05.179Z,45.77
2018-08-06T11:36:39.759Z,46.07
2018-08-06T11:39:11.674Z,47.87
2018-08-06T11:41:42.806Z,49.37
2018-08-06T11:44:13.128Z,46.60
2018-08-06T11:46:43.202Z,47.07
2018-08-06T11:49:15.374Z,46.10
2018-08-06T11:51:50.080Z,46.43
2018-08-06T11:54:20.334Z,48.13
2018-08-06T11:56:52.517Z,46.90
2018-08-06T11:59:22.889Z,46.37
2018-08-06T12:01:55.306Z,45.53
2018-08-06T12:04:26.277Z,46.30
2018-08-06T12:06:56.497Z,46.17
2018-08-06T12:09:26.546Z,45.83
2018-08-06T12:11:56.796Z,45.70
2018-08-06T12:14:27.353Z,45.83
2018-08-06T12:16:58.691Z,45.27
2018-08-06T12:19:28.868Z,46.07
2018-08-06T12:21:59.505Z,46.30
2018-08-06T12:24:32.356Z,45.80
2018-08-06T12:27:03.860Z,46.00
2018-08-06T12:29:34.404Z,45.83
2018-08-06T12:32:04.662Z,45.60
2018-08-06T12:34:34.587Z,46.70
2018-08-06T12:37:04.692Z,45.60
2018-08-06T12:39:35.148Z,45.20
2018-08-06T12:42:05.566Z,45.67
2018-08-06T12:44:35.903Z,45.43
2018-08-06T12:47:06.505Z,46.70
2018-08-06T12:49:36.590Z,46.33
2018-08-06T12:52:07.427Z,45.83
2018-08-06T12:54:38.984Z,45.77
2018-08-06T12:57:09.716Z,46.03
2018-08-06T12:59:40.931Z,47.00
2018-08-06T13:02:12.650Z,46.23
2018-08-06T13:04:42.916Z,45.97
2018-08-06T13:07:13.090Z,45.57
2018-08-06T13:09:43.337Z,45.80
2018-08-06T13:12:13.641Z,45.50
2018-08-06T13:14:43.925Z,46.20
2018-08-06T13:17:17.194Z,46.63
2018-08-06T13:19:47.509Z,46.03
2018-08-06T13:22:17.509Z,45.33
2018-08-06T13:24:47.805Z,45.20
2018-08-06T13:27:18.701Z,46.50
2018-08-06T13:29:49.602Z,46.30
2018-08-06T13:32:22.611Z,46.07
2018-08-06T13:34:52.509Z,45.83
2018-08-06T13:37:24.595Z,45.57
2018-08-06T13:39:54.662Z,46.73
2018-08-06T13:42:24.780Z,46.67
2018-08-06T13:44:55.426Z,45.93
2018-08-06T13:47:25.528Z,46.47
2018-08-06T13:49:56.041Z,46.00
2018-08-06T13:52:26.919Z,46.30
2018-08-06T13:54:56.914Z,46.63
2018-08-06T13:57:30.265Z,47.10
2018-08-06T14:00:01.195Z,45.43
2018-08-06T14:02:33.637Z,45.97
2018-08-06T14:05:04.441Z,45.70
2018-08-06T14:07:35.377Z,45.73
2018-08-06T14:10:07.195Z,46.53
2018-08-06T14:12:38.658Z,46.60
2018-08-06T14:15:10.967Z,46.30
2018-08-06T14:17:41.933Z,46.60
2018-08-06T14:20:17.190Z,46.50
2018-08-06T14:22:47.681Z,47.83
2018-08-06T14:25:17.983Z,47.57
2018-08-06T14:27:51.575Z,46.70
2018-08-06T14:30:23.777Z,47.40
2018-08-06T14:32:56.639Z,47.78
2018-08-06T14:35:34.161Z,48.42
2018-08-06T14:38:07.383Z,47.43
2018-08-06T14:40:40.727Z,47.15
2018-08-06T14:43:14.117Z,48.30
2018-08-06T14:45:46.928Z,48.20
2018-08-06T14:48:19.633Z,48.40
2018-08-06T14:50:52.554Z,47.65
2018-08-06T14:53:25.670Z,48.30
2018-08-06T14:55:57.607Z,48.58
2018-08-06T14:58:29.593Z,49.40
2018-08-06T15:01:01.905Z,66.95
2018-08-06T15:03:35.445Z,48.58
2018-08-06T15:06:07.429Z,47.50
2018-08-06T15:08:39.391Z,49.13
2018-08-06T15:11:12.355Z,48.40
2018-08-06T15:13:45.919Z,47.62
2018-08-06T15:16:16.746Z,48.00
2018-08-06T15:18:49.118Z,48.15
2018-08-06T15:21:20.760Z,48.95
2018-08-06T15:23:57.956Z,48.08
2018-08-06T15:26:30.617Z,47.85
2018-08-06T15:29:04.493Z,48.00
2018-08-06T15:31:35.526Z,48.75
2018-08-06T15:34:05.486Z,49.58
2018-08-06T15:36:35.974Z,48.02
2018-08-06T15:39:13.682Z,48.30
2018-08-06T15:41:44.971Z,48.30
2018-08-06T15:44:15.242Z,48.83
2018-08-06T15:46:45.372Z,49.48
2018-08-06T15:49:15.659Z,49.18
2018-08-06T15:51:45.853Z,48.70
2018-08-06T15:54:16.252Z,48.40
2018-08-06T15:56:46.449Z,48.08
2018-08-06T15:59:17.220Z,49.33
2018-08-06T16:01:47.669Z,48.70
2018-08-06T16:04:19.269Z,48.23
2018-08-06T16:06:49.405Z,48.33
2018-08-06T16:09:19.994Z,49.20
2018-08-06T16:11:50.523Z,49.13
2018-08-06T16:14:20.692Z,49.90
2018-08-06T16:16:51.028Z,48.42
2018-08-06T16:19:22.644Z,48.70
2018-08-06T16:21:54.969Z,47.98
2018-08-06T16:24:24.889Z,48.50
2018-08-06T16:26:54.738Z,49.00
2018-08-06T16:29:25.202Z,49.18
2018-08-06T16:31:55.576Z,48.20
2018-08-06T16:34:26.210Z,48.63
2018-08-06T16:36:57.249Z,48.23
2018-08-06T16:39:27.334Z,48.70
2018-08-06T16:41:57.954Z,48.48
2018-08-06T16:44:28.332Z,47.90
2018-08-06T16:46:59.493Z,48.20
2018-08-06T16:49:30.487Z,47.98
2018-08-06T16:52:01.636Z,47.85
2018-08-06T16:54:32.574Z,48.05
2018-08-06T16:57:03.328Z,48.52
2018-08-06T16:59:34.145Z,49.27
2018-08-06T17:02:04.627Z,49.03
2018-08-06T17:04:34.738Z,48.48
2018-08-06T17:07:04.979Z,50.55
2018-08-06T17:09:35.818Z,49.75
2018-08-06T17:12:06.541Z,48.40
2018-08-06T17:14:37.293Z,50.48
2018-08-06T17:17:08.542Z,49.23
2018-08-06T17:19:40.059Z,48.28
2018-08-06T17:22:12.958Z,48.90
2018-08-06T17:24:43.217Z,49.03
2018-08-06T17:27:13.269Z,48.60
2018-08-06T17:29:44.110Z,48.23
2018-08-06T17:32:14.473Z,47.88
2018-08-06T17:34:45.754Z,48.28
2018-08-06T17:37:16.346Z,48.30
2018-08-06T17:39:46.629Z,47.98
2018-08-06T17:42:16.700Z,47.67
2018-08-06T17:44:48.086Z,47.55
2018-08-06T17:47:18.912Z,48.50
2018-08-06T17:49:49.118Z,47.73
2018-08-06T17:52:19.765Z,47.48
2018-08-06T17:54:57.359Z,47.75
2018-08-06T17:57:28.636Z,47.80
2018-08-06T17:59:59.381Z,47.65
2018-08-06T18:02:29.713Z,48.50
2018-08-06T18:05:00.320Z,47.58
2018-08-06T18:07:30.783Z,48.40
2018-08-06T18:10:01.676Z,47.63
2018-08-06T18:12:32.589Z,47.60
2018-08-06T18:15:03.198Z,48.47
2018-08-06T18:17:33.229Z,48.57
2018-08-06T18:20:03.373Z,47.63
2018-08-06T18:22:34.276Z,47.87
2018-08-06T18:25:06.674Z,47.93
2018-08-06T18:27:37.934Z,47.30
2018-08-06T18:30:15.842Z,48.10
2018-08-06T18:32:46.397Z,47.83
2018-08-06T18:35:17.776Z,47.80
2018-08-06T18:37:48.366Z,47.37
2018-08-06T18:40:20.023Z,49.37
2018-08-06T18:42:51.460Z,48.17
2018-08-06T18:45:23.058Z,47.13
2018-08-06T18:47:53.172Z,46.73
2018-08-06T18:50:24.041Z,47.43
2018-08-06T18:52:54.743Z,47.60
2018-08-06T18:55:25.766Z,48.07
2018-08-06T18:57:56.020Z,47.90
2018-08-06T19:00:27.198Z,47.90
2018-08-06T19:02:57.410Z,46.23
2018-08-06T19:05:27.598Z,46.80
2018-08-06T19:07:57.707Z,47.47
2018-08-06T19:10:28.019Z,47.23
2018-08-06T19:13:03.129Z,46.60
2018-08-06T19:15:34.266Z,46.57
2018-08-06T19:18:09.514Z,47.27
2018-08-06T19:20:39.608Z,47.33
2018-08-06T19:23:10.505Z,47.03
2018-08-06T19:25:41.282Z,46.20
2018-08-06T19:28:11.914Z,46.93
2018-08-06T19:30:47.274Z,46.53
2018-08-06T19:33:17.452Z,48.13
2018-08-06T19:35:48.058Z,46.97
2018-08-06T19:38:18.712Z,47.03
2018-08-06T19:40:48.841Z,46.63
2018-08-06T19:43:24.192Z,45.80
2018-08-06T19:45:54.434Z,46.83
2018-08-06T19:48:24.720Z,47.07
2018-08-06T19:50:54.962Z,45.27
2018-08-06T19:53:25.165Z,46.63
2018-08-06T19:56:00.332Z,45.93
2018-08-06T19:58:30.380Z,46.30
2018-08-06T20:01:00.898Z,46.57
2018-08-06T20:03:31.229Z,46.13
2018-08-06T20:06:01.417Z,45.83
2018-08-06T20:08:31.839Z,45.73
2018-08-06T20:11:02.227Z,45.57
2018-08-06T20:13:32.907Z,46.17
2018-08-06T20:16:03.293Z,46.43
2018-08-06T20:18:34.065Z,46.33
2018-08-06T20:21:04.285Z,45.63
2018-08-06T20:23:35.212Z,45.83
2018-08-06T20:26:05.488Z,46.50
2018-08-06T20:28:35.468Z,47.47
2018-08-06T20:31:05.767Z,45.30
2018-08-06T20:33:35.892Z,46.47
2018-08-06T20:36:07.090Z,45.37
2018-08-06T20:38:37.104Z,46.30
2018-08-06T20:41:07.158Z,45.70
2018-08-06T20:43:38.160Z,46.33
2018-08-06T20:46:08.721Z,46.13
2018-08-06T20:48:39.382Z,46.73
2018-08-06T20:51:09.990Z,45.97
2018-08-06T20:53:41.260Z,45.80
2018-08-06T20:56:11.801Z,46.70
2018-08-06T20:58:41.849Z,46.13
2018-08-06T21:01:12.286Z,47.03
2018-08-06T21:03:42.269Z,46.53
2018-08-06T21:06:12.627Z,46.20
2018-08-06T21:08:42.821Z,46.97
2018-08-06T21:11:13.018Z,47.33
2018-08-06T21:13:43.346Z,46.53
2018-08-06T21:16:13.577Z,46.23
2018-08-06T21:18:43.570Z,47.03
2018-08-06T21:21:13.659Z,46.87
2018-08-06T21:23:44.124Z,47.20
2018-08-06T21:26:14.670Z,46.90
2018-08-06T21:28:45.830Z,46.83
2018-08-06T21:31:16.115Z,47.97
2018-08-06T21:33:46.052Z,47.60
2018-08-06T21:36:16.161Z,47.10
2018-08-06T21:38:46.591Z,47.23
2018-08-06T21:41:16.886Z,46.27
2018-08-06T21:43:47.083Z,45.87
2018-08-06T21:46:17.549Z,46.40
2018-08-06T21:48:47.894Z,46.00
2018-08-06T21:51:18.028Z,47.87
2018-08-06T21:53:48.410Z,46.80
2018-08-06T21:56:19.110Z,46.47
2018-08-06T21:58:49.346Z,46.20
2018-08-06T22:01:20.232Z,46.27
2018-08-06T22:03:50.678Z,46.50
2018-08-06T22:06:20.773Z,46.90
2018-08-06T22:08:50.903Z,46.50
2018-08-06T22:11:21.601Z,46.33
2018-08-06T22:13:51.856Z,46.63
2018-08-06T22:16:22.165Z,45.80
2018-08-06T22:18:52.309Z,46.63
2018-08-06T22:21:22.634Z,47.83
2018-08-06T22:23:53.042Z,46.33
2018-08-06T22:26:23.041Z,46.00
2018-08-06T22:28:53.365Z,46.20
2018-08-06T22:31:24.911Z,46.73
2018-08-06T22:33:55.599Z,46.60
2018-08-06T22:36:26.445Z,46.47
2018-08-06T22:38:56.630Z,46.03
2018-08-06T22:41:26.945Z,46.70
2018-08-06T22:43:57.681Z,45.87
2018-08-06T22:46:28.350Z,46.30
2018-08-06T22:48:59.152Z,46.90
2018-08-06T22:51:29.929Z,46.00
2018-08-06T22:54:00.240Z,46.30
2018-08-06T22:56:30.361Z,45.63
2018-08-06T22:59:01.800Z,46.00
2018-08-06T23:01:32.473Z,49.80
2018-08-06T23:04:02.928Z,45.83
2018-08-06T23:06:34.094Z,46.80
2018-08-06T23:09:07.479Z,46.37
2018-08-06T23:11:37.935Z,47.77
2018-08-06T23:14:09.531Z,47.33
2018-08-06T23:16:40.148Z,47.13
2018-08-06T23:19:10.275Z,47.27
2018-08-06T23:21:41.342Z,47.67
2018-08-06T23:24:11.737Z,47.80
2018-08-06T23:26:41.994Z,47.77
2018-08-06T23:29:12.492Z,47.87
2018-08-06T23:31:44.959Z,46.97
2018-08-06T23:34:15.020Z,46.97
2018-08-06T23:36:46.618Z,46.20
2018-08-06T23:39:23.984Z,46.97
2018-08-06T23:41:55.735Z,47.47
2018-08-06T23:44:26.109Z,46.20
2018-08-06T23:46:56.928Z,46.47
2018-08-06T23:49:27.162Z,46.97
2018-08-06T23:51:58.779Z,47.27
2018-08-06T23:54:29.820Z,46.77
2018-08-06T23:57:00.762Z,46.33
2018-08-06T23:59:31.369Z,46.23
